Time;durP1;ratioP1;P1;durP2;ratioP2;P2;SDS_P1;SDS_P2;PMS_P1;PMS_P2;Temp;Humidity;BMP_temperature;BMP_pressure;BME280_temperature;BME280_humidity;BME280_pressure;Samples;Min_cycle;Max_cycle;Signal;HPM_P1;HPM_P2
2021/04/20 00:02:04;;;;;;;24.17;16.73;;;4.00;63.10;;;;;;5067394;28;39207;-79
2021/04/20 00:04:31;;;;;;;24.10;14.90;;;4.00;63.10;;;;;;5073064;28;37590;-80
2021/04/20 00:06:58;;;;;;;24.37;14.90;;;3.90;63.00;;;;;;5068120;28;39785;-79
2021/04/20 00:09:25;;;;;;;21.20;14.13;;;3.90;62.90;;;;;;5070510;28;38687;-79
2021/04/20 00:11:53;;;;;;;24.43;15.40;;;3.90;63.00;;;;;;5070435;28;38330;-79
2021/04/20 00:14:23;;;;;;;24.40;14.50;;;3.90;63.10;;;;;;5068733;28;37026;-79
2021/04/20 00:16:53;;;;;;;21.53;14.33;;;4.00;63.20;;;;;;5073497;28;39288;-79
2021/04/20 00:19:20;;;;;;;22.40;14.77;;;4.00;63.40;;;;;;5074378;28;40232;-78
2021/04/20 00:21:47;;;;;;;19.20;14.03;;;4.00;63.30;;;;;;5090023;28;37149;-79
2021/04/20 00:24:14;;;;;;;19.67;13.70;;;4.10;63.40;;;;;;5073642;28;37860;-79
2021/04/20 00:26:41;;;;;;;19.67;13.37;;;4.10;63.00;;;;;;5056631;28;38604;-78
2021/04/20 00:29:09;;;;;;;20.30;13.60;;;4.10;62.60;;;;;;5073957;28;39000;-78
2021/04/20 00:31:36;;;;;;;23.67;14.93;;;4.10;62.40;;;;;;5074287;28;39462;-78
2021/04/20 00:34:03;;;;;;;22.20;14.63;;;4.10;62.30;;;;;;5070987;28;37097;-78
2021/04/20 00:36:30;;;;;;;18.80;13.10;;;4.10;62.00;;;;;;5071765;28;40652;-78
2021/04/20 00:38:58;;;;;;;19.83;13.90;;;4.10;62.40;;;;;;5079215;28;39447;-78
2021/04/20 00:41:25;;;;;;;21.60;14.63;;;4.20;62.10;;;;;;5052085;28;37116;-78
2021/04/20 00:43:52;;;;;;;18.87;13.10;;;4.20;62.10;;;;;;5085724;28;37995;-77
2021/04/20 00:46:21;;;;;;;18.33;13.07;;;4.20;62.10;;;;;;5074822;28;39441;-78
2021/04/20 00:48:49;;;;;;;18.77;14.00;;;4.20;62.00;;;;;;5078521;28;39106;-78
2021/04/20 00:51:19;;;;;;;20.07;13.77;;;4.20;62.00;;;;;;5075879;28;39112;-78
2021/04/20 00:53:48;;;;;;;21.70;14.70;;;4.20;61.80;;;;;;5055113;28;37295;-78
2021/04/20 00:56:18;;;;;;;22.60;15.40;;;4.20;61.80;;;;;;5073277;28;40587;-78
2021/04/20 00:58:46;;;;;;;19.77;13.67;;;4.20;61.50;;;;;;5057992;28;37892;-78
2021/04/20 01:01:13;;;;;;;20.40;13.97;;;4.20;61.40;;;;;;5073833;28;38217;-77
2021/04/20 01:03:40;;;;;;;21.40;14.43;;;4.20;61.40;;;;;;5062756;28;36234;-77
2021/04/20 01:06:08;;;;;;;15.60;12.27;;;4.20;61.00;;;;;;5055426;28;39755;-77
2021/04/20 01:08:36;;;;;;;22.73;15.37;;;4.20;61.00;;;;;;5054756;28;38835;-78
2021/04/20 01:11:04;;;;;;;20.50;15.00;;;4.10;60.90;;;;;;5054854;28;37354;-78
2021/04/20 01:13:33;;;;;;;22.57;15.40;;;4.10;60.80;;;;;;5090900;28;37219;-77
2021/04/20 01:16:00;;;;;;;22.00;13.57;;;4.10;61.20;;;;;;5062674;28;39454;-77
2021/04/20 01:18:29;;;;;;;22.13;14.00;;;4.00;60.50;;;;;;5055431;28;37694;-77
2021/04/20 01:21:00;;;;;;;23.70;15.43;;;3.90;61.00;;;;;;5073346;28;38422;-77
2021/04/20 01:23:41;;;;;;;23.77;14.90;;;3.80;60.40;;;;;;5057360;28;37224;-77
2021/04/20 01:26:12;;;;;;;24.90;15.10;;;3.80;60.50;;;;;;5049241;28;38499;-76
2021/04/20 01:28:39;;;;;;;23.37;14.47;;;3.70;60.60;;;;;;5085083;28;38928;-77
2021/04/20 01:31:08;;;;;;;20.47;14.43;;;3.70;60.80;;;;;;5053222;28;38178;-78
2021/04/20 01:33:35;;;;;;;25.20;15.40;;;3.70;60.70;;;;;;5061469;28;37732;-78
2021/04/20 01:36:03;;;;;;;23.00;14.00;;;3.70;61.00;;;;;;5073796;28;40413;-77
2021/04/20 01:38:31;;;;;;;25.07;15.23;;;3.70;61.20;;;;;;5077207;28;38790;-77
2021/04/20 01:40:58;;;;;;;18.90;13.03;;;3.70;61.40;;;;;;5084103;28;39297;-78
2021/04/20 01:43:26;;;;;;;17.47;13.83;;;3.70;61.50;;;;;;5078605;28;37449;-77
2021/04/20 01:45:56;;;;;;;24.10;14.67;;;3.70;61.70;;;;;;5073374;28;38878;-77
2021/04/20 01:48:23;;;;;;;23.17;14.50;;;3.70;61.70;;;;;;5069875;28;38675;-77
2021/04/20 01:50:51;;;;;;;16.40;12.80;;;3.80;61.80;;;;;;5054683;28;37331;-77
2021/04/20 01:53:18;;;;;;;20.60;14.00;;;3.80;61.80;;;;;;5088399;28;37376;-78
2021/04/20 01:55:46;;;;;;;21.27;15.10;;;3.80;61.80;;;;;;5084085;28;39704;-77
2021/04/20 01:58:14;;;;;;;22.37;13.77;;;3.90;61.90;;;;;;5052633;28;37752;-77
2021/04/20 02:00:42;;;;;;;22.27;13.90;;;3.90;61.90;;;;;;5071649;28;38640;-76
2021/04/20 02:03:10;;;;;;;20.27;13.60;;;4.00;61.90;;;;;;5072405;28;37151;-76
2021/04/20 02:05:38;;;;;;;20.47;14.43;;;4.00;61.90;;;;;;5072984;28;39882;-77
2021/04/20 02:08:07;;;;;;;21.80;14.03;;;4.10;61.70;;;;;;5075657;28;39178;-77
2021/04/20 02:10:35;;;;;;;18.20;12.77;;;4.10;62.00;;;;;;5052105;28;38422;-77
2021/04/20 02:13:02;;;;;;;17.33;13.23;;;4.10;61.50;;;;;;5051829;28;35932;-76
2021/04/20 02:15:30;;;;;;;18.37;12.60;;;4.20;61.40;;;;;;5053490;28;38315;-76
2021/04/20 02:17:58;;;;;;;18.40;13.03;;;4.20;61.40;;;;;;5071405;28;38947;-76
2021/04/20 02:20:28;;;;;;;17.47;13.17;;;4.20;61.20;;;;;;5070821;28;38674;-76
2021/04/20 02:22:56;;;;;;;21.10;15.17;;;4.20;60.80;;;;;;5035739;28;36230;-76
2021/04/20 02:25:24;;;;;;;19.93;14.37;;;4.20;61.00;;;;;;5071811;28;39945;-77
2021/04/20 02:27:54;;;;;;;21.83;14.57;;;4.20;60.70;;;;;;5053230;28;38065;-76
2021/04/20 02:30:21;;;;;;;21.37;14.27;;;4.20;60.80;;;;;;5061807;28;37475;-76
2021/04/20 02:32:49;;;;;;;20.80;14.07;;;4.20;60.70;;;;;;5072205;28;38256;-76
2021/04/20 02:35:19;;;;;;;19.93;13.47;;;4.20;60.70;;;;;;5068457;28;39735;-76
2021/04/20 02:37:47;;;;;;;18.53;14.27;;;4.20;60.90;;;;;;5072362;28;40233;-78
2021/04/20 02:40:19;;;;;;;21.30;14.50;;;4.20;60.90;;;;;;5074671;28;37008;-78
2021/04/20 02:42:48;;;;;;;19.10;13.47;;;4.30;61.00;;;;;;5067480;28;37715;-77
2021/04/20 02:45:16;;;;;;;23.27;15.37;;;4.30;61.00;;;;;;5058014;28;39489;-77
2021/04/20 02:47:43;;;;;;;22.80;13.50;;;4.30;60.90;;;;;;5076559;28;39053;-77
2021/04/20 02:50:13;;;;;;;21.43;14.67;;;4.40;60.60;;;;;;5069297;28;37158;-78
2021/04/20 02:52:42;;;;;;;19.73;15.03;;;4.40;60.50;;;;;;5080920;28;37883;-77
2021/04/20 02:55:13;;;;;;;22.97;13.90;;;4.50;60.60;;;;;;5070779;28;39798;-78
2021/04/20 02:57:44;;;;;;;19.83;12.90;;;4.50;60.40;;;;;;5059649;28;38280;-78
2021/04/20 03:00:14;;;;;;;17.13;12.87;;;4.50;60.50;;;;;;5068595;28;38530;-78
2021/04/20 03:02:45;;;;;;;20.57;13.53;;;4.50;60.00;;;;;;5072017;28;37967;-78
2021/04/20 03:05:15;;;;;;;18.60;13.10;;;4.50;60.20;;;;;;5070396;28;39500;-78
2021/04/20 03:07:43;;;;;;;19.03;13.57;;;4.50;60.10;;;;;;5057461;28;38993;-79
2021/04/20 03:10:12;;;;;;;18.50;12.20;;;4.60;60.10;;;;;;5072736;28;38087;-78
2021/04/20 03:12:40;;;;;;;21.50;13.87;;;4.60;60.10;;;;;;5071965;28;38181;-78
2021/04/20 03:15:10;;;;;;;15.43;12.97;;;4.60;59.90;;;;;;5057410;28;38222;-78
2021/04/20 03:17:38;;;;;;;17.60;13.63;;;4.60;59.80;;;;;;5073305;28;39088;-78
2021/04/20 03:20:07;;;;;;;20.07;15.37;;;4.50;59.90;;;;;;5074824;28;38495;-78
2021/04/20 03:22:39;;;;;;;18.50;14.40;;;4.50;59.70;;;;;;5072349;28;37455;-78
2021/04/20 03:25:21;;;;;;;24.67;14.87;;;4.50;59.80;;;;;;5075367;28;39643;-78
2021/04/20 03:27:51;;;;;;;20.97;15.53;;;4.60;60.10;;;;;;5065871;28;39988;-77
2021/04/20 03:30:21;;;;;;;21.23;14.37;;;4.60;60.10;;;;;;5075223;28;38788;-78
2021/04/20 03:32:56;;;;;;;24.07;16.10;;;4.60;60.10;;;;;;5075050;28;38177;-77
2021/04/20 03:35:28;;;;;;;21.70;14.70;;;4.60;60.10;;;;;;5073183;28;39766;-77
2021/04/20 03:38:03;;;;;;;21.03;15.30;;;4.60;60.30;;;;;;5072657;28;38825;-77
2021/04/20 03:40:33;;;;;;;23.23;15.17;;;4.60;60.30;;;;;;5097138;28;38171;-77
2021/04/20 03:43:06;;;;;;;21.67;13.80;;;4.60;60.30;;;;;;5103870;27;38152;-77
2021/04/20 03:45:42;;;;;;;21.70;12.93;;;4.70;60.30;;;;;;5081145;28;39978;-77
2021/04/20 03:48:15;;;;;;;23.97;14.40;;;4.70;60.30;;;;;;5071236;28;39444;-77
2021/04/20 03:50:50;;;;;;;23.27;13.13;;;4.70;60.20;;;;;;5071408;28;38538;-76
2021/04/20 03:53:19;;;;;;;18.83;13.40;;;4.70;60.20;;;;;;5058437;28;36017;-77
2021/04/20 03:55:49;;;;;;;21.40;14.70;;;4.70;60.00;;;;;;5083363;28;39723;-79
2021/04/20 03:58:19;;;;;;;19.17;13.57;;;4.70;60.00;;;;;;5090862;28;38947;-78
2021/04/20 04:00:51;;;;;;;18.03;12.80;;;4.70;60.00;;;;;;5077881;28;38481;-76
2021/04/20 04:03:21;;;;;;;20.17;14.20;;;4.70;60.00;;;;;;5073961;28;37230;-76
2021/04/20 04:05:49;;;;;;;18.83;13.27;;;4.80;60.00;;;;;;5075344;28;39633;-77
2021/04/20 04:08:17;;;;;;;16.87;12.37;;;4.70;59.80;;;;;;5065873;28;37743;-76
2021/04/20 04:10:49;;;;;;;19.73;13.30;;;4.80;59.90;;;;;;5076270;28;38326;-76
2021/04/20 04:13:20;;;;;;;15.50;11.80;;;4.80;59.80;;;;;;5062306;28;36017;-76
2021/04/20 04:15:49;;;;;;;21.20;13.10;;;4.80;59.60;;;;;;5073390;28;39144;-77
2021/04/20 04:18:18;;;;;;;19.10;13.20;;;4.80;59.70;;;;;;5075148;28;39314;-76
2021/04/20 04:20:48;;;;;;;22.27;14.07;;;4.80;59.60;;;;;;5060785;28;38662;-77
2021/04/20 04:23:18;;;;;;;19.73;13.47;;;4.70;59.50;;;;;;5057704;28;36088;-77
2021/04/20 04:25:49;;;;;;;21.37;14.10;;;4.70;59.60;;;;;;5080823;28;39855;-77
2021/04/20 04:28:19;;;;;;;21.53;13.33;;;4.70;59.70;;;;;;5059487;28;38023;-77
2021/04/20 04:30:48;;;;;;;19.90;13.57;;;4.70;59.70;;;;;;5080824;28;39040;-77
2021/04/20 04:33:15;;;;;;;20.63;13.90;;;4.70;59.80;;;;;;5088103;28;38583;-77
2021/04/20 04:35:44;;;;;;;22.83;15.20;;;4.70;59.80;;;;;;5086146;28;39945;-77
2021/04/20 04:38:11;;;;;;;17.87;13.43;;;4.70;59.80;;;;;;5074132;28;39049;-77
2021/04/20 04:40:38;;;;;;;20.03;13.73;;;4.80;59.90;;;;;;5078172;28;39405;-77
2021/04/20 04:43:06;;;;;;;19.37;13.77;;;4.80;60.00;;;;;;5073961;28;37904;-78
2021/04/20 04:45:34;;;;;;;16.93;12.83;;;4.80;60.00;;;;;;5068044;28;38313;-76
2021/04/20 04:48:05;;;;;;;19.20;14.03;;;4.90;60.10;;;;;;5072460;28;39965;-76
2021/04/20 04:50:36;;;;;;;19.40;13.23;;;4.90;60.10;;;;;;5072396;28;39068;-76
2021/04/20 04:53:04;;;;;;;20.70;13.60;;;5.00;60.00;;;;;;5056181;28;36104;-78
2021/04/20 04:55:31;;;;;;;20.73;14.20;;;5.10;60.10;;;;;;5064529;28;39329;-79
2021/04/20 04:58:00;;;;;;;18.83;13.50;;;5.10;59.90;;;;;;5084541;28;39720;-78
2021/04/20 05:00:27;;;;;;;21.57;14.80;;;5.20;60.00;;;;;;5071886;28;39248;-78
2021/04/20 05:02:58;;;;;;;24.70;14.17;;;5.20;60.00;;;;;;5058670;28;36176;-79
2021/04/20 05:05:26;;;;;;;17.90;13.63;;;5.30;60.10;;;;;;5073545;28;40300;-79
2021/04/20 05:08:01;;;;;;;21.30;15.07;;;5.40;60.10;;;;;;5065729;28;37933;-78
2021/04/20 05:10:28;;;;;;;20.57;14.43;;;5.50;59.70;;;;;;5083732;28;39398;-80
2021/04/20 05:12:57;;;;;;;18.00;13.70;;;5.60;59.80;;;;;;5075469;28;37465;-77
2021/04/20 05:15:24;;;;;;;15.83;12.50;;;5.70;59.20;;;;;;5082703;28;40815;-79
2021/04/20 05:17:53;;;;;;;15.70;12.17;;;5.80;59.20;;;;;;5081146;28;40416;-77
2021/04/20 05:20:22;;;;;;;17.47;13.63;;;5.90;58.80;;;;;;5069369;28;38686;-78
2021/04/20 05:22:50;;;;;;;17.10;12.57;;;6.00;58.70;;;;;;5053155;28;36169;-79
2021/04/20 05:25:19;;;;;;;18.33;13.60;;;6.10;58.20;;;;;;5074947;28;39830;-79
2021/04/20 05:27:48;;;;;;;15.20;12.23;;;6.20;57.90;;;;;;5055292;28;37725;-79
2021/04/20 05:30:16;;;;;;;16.97;12.00;;;6.40;58.00;;;;;;5073580;28;39150;-78
2021/04/20 05:32:49;;;;;;;17.63;12.43;;;6.60;57.60;;;;;;5050148;28;36165;-77
2021/04/20 05:35:19;;;;;;;17.07;13.37;;;7.00;57.90;;;;;;5070131;28;40304;-78
2021/04/20 05:37:51;;;;;;;19.80;11.47;;;8.00;57.20;;;;;;5055350;28;37675;-79
2021/04/20 05:40:20;;;;;;;18.80;12.47;;;9.30;55.30;;;;;;5073583;28;39185;-77
2021/04/20 05:42:47;;;;;;;17.07;12.57;;;10.80;50.90;;;;;;5075667;28;37720;-78
2021/04/20 05:45:15;;;;;;;17.60;12.10;;;12.40;44.70;;;;;;5073760;28;39405;-79
2021/04/20 05:47:44;;;;;;;15.40;12.47;;;13.80;43.70;;;;;;5066815;28;38320;-78
2021/04/20 05:50:17;;;;;;;15.67;12.20;;;15.30;39.50;;;;;;5078155;28;38591;-78
2021/04/20 05:52:44;;;;;;;13.63;12.23;;;16.40;35.90;;;;;;5124918;28;37231;-78
2021/04/20 05:55:13;;;;;;;18.50;13.30;;;17.30;34.70;;;;;;5092347;28;40706;-78
2021/04/20 05:57:43;;;;;;;17.70;14.07;;;18.10;33.80;;;;;;5066158;28;37919;-78
2021/04/20 06:00:12;;;;;;;15.60;13.43;;;18.70;31.90;;;;;;5068144;28;38574;-78
2021/04/20 06:02:42;;;;;;;16.13;12.10;;;19.20;31.20;;;;;;5055805;28;37666;-78
2021/04/20 06:05:11;;;;;;;14.17;12.40;;;19.80;30.10;;;;;;5053070;28;40472;-78
2021/04/20 06:07:41;;;;;;;15.83;13.50;;;20.10;29.50;;;;;;5010833;28;37862;-78
2021/04/20 06:10:14;;;;;;;18.70;16.73;;;20.60;29.10;;;;;;5014562;28;38257;-79
2021/04/20 06:12:44;;;;;;;17.67;13.10;;;21.00;28.60;;;;;;5027727;28;38048;-79
2021/04/20 06:15:14;;;;;;;18.83;14.23;;;21.40;28.40;;;;;;5030532;28;39556;-78
2021/04/20 06:17:41;;;;;;;18.43;13.87;;;21.50;28.10;;;;;;5030691;28;39133;-79
2021/04/20 06:20:11;;;;;;;18.47;16.60;;;21.60;28.10;;;;;;5012485;28;37878;-79
2021/04/20 06:22:40;;;;;;;19.53;15.37;;;21.10;27.80;;;;;;5010771;28;36253;-78
2021/04/20 06:25:10;;;;;;;16.23;14.43;;;20.80;27.90;;;;;;5013031;28;39860;-79
2021/04/20 06:27:39;;;;;;;15.53;13.93;;;20.70;28.30;;;;;;5029642;28;39140;-78
2021/04/20 06:30:07;;;;;;;21.67;15.30;;;20.80;28.00;;;;;;5029233;28;38313;-78
2021/04/20 06:32:37;;;;;;;16.57;13.80;;;20.50;27.90;;;;;;5023542;28;37281;-78
2021/04/20 06:35:06;;;;;;;17.50;15.00;;;19.80;28.30;;;;;;4993033;28;38471;-79
2021/04/20 06:37:35;;;;;;;18.73;14.27;;;19.40;29.20;;;;;;5021127;28;39230;-77
2021/04/20 06:40:08;;;;;;;20.53;15.13;;;19.10;29.30;;;;;;4993246;28;38531;-79
2021/04/20 06:42:43;;;;;;;22.50;15.23;;;19.00;30.00;;;;;;5016471;28;37491;-78
2021/04/20 06:45:15;;;;;;;26.70;15.27;;;19.30;29.40;;;;;;5033059;28;39948;-78
2021/04/20 06:47:48;;;;;;;23.03;15.00;;;20.10;29.30;;;;;;5056669;28;39970;-79
2021/04/20 06:50:17;;;;;;;24.23;15.90;;;20.80;28.70;;;;;;5068860;28;38198;-79
2021/04/20 06:52:50;;;;;;;37.87;19.37;;;21.00;28.40;;;;;;5064359;28;37441;-79
2021/04/20 06:55:24;;;;;;;26.30;17.40;;;20.90;27.60;;;;;;5061762;28;40949;-79
2021/04/20 06:58:04;;;;;;;20.50;15.43;;;20.80;27.60;;;;;;5073248;28;39007;-79
2021/04/20 07:00:41;;;;;;;22.80;15.40;;;20.90;27.60;;;;;;5061284;28;38360;-76
2021/04/20 07:03:18;;;;;;;18.47;15.57;;;21.00;27.90;;;;;;5061629;28;37601;-76
2021/04/20 07:05:52;;;;;;;18.73;16.23;;;21.90;27.60;;;;;;5054051;28;39109;-78
2021/04/20 07:08:23;;;;;;;18.83;16.50;;;23.40;26.10;;;;;;5081454;28;38666;-77
2021/04/20 07:10:53;;;;;;;25.10;16.53;;;23.90;25.20;;;;;;5072761;28;38525;-77
2021/04/20 07:13:25;;;;;;;22.40;16.60;;;23.70;25.10;;;;;;5074002;28;39499;-76
2021/04/20 07:15:57;;;;;;;19.30;15.30;;;23.20;25.90;;;;;;5071014;28;39267;-78
2021/04/20 07:18:57;;;;;;;22.23;16.60;;;23.70;25.80;;;;;;5050799;28;36903;-78
2021/04/20 07:21:50;;;;;;;15.07;13.40;;;24.60;24.40;;;;;;5035682;28;36857;-78
2021/04/20 07:24:19;;;;;;;15.80;14.30;;;24.80;24.10;;;;;;5067927;28;37410;-77
2021/04/20 07:27:10;;;;;;;16.00;13.90;;;24.50;23.90;;;;;;5083682;28;39924;-77
2021/04/20 07:29:54;;;;;;;15.07;13.47;;;24.50;24.40;;;;;;5065108;28;38894;-78
2021/04/20 07:32:29;;;;;;;15.77;14.23;;;24.50;24.80;;;;;;5074716;28;39367;-77
2021/04/20 07:35:11;;;;;;;18.30;15.13;;;25.30;24.40;;;;;;5071905;28;38290;-78
2021/04/20 07:37:47;;;;;;;21.83;13.80;;;27.00;23.00;;;;;;5070989;28;40556;-77
2021/04/20 07:40:24;;;;;;;16.50;14.70;;;28.40;22.00;;;;;;5074600;28;38850;-77
2021/04/20 07:43:18;;;;;;;22.53;14.87;;;28.80;20.60;;;;;;5083933;28;38439;-78
2021/04/20 07:45:52;;;;;;;17.23;14.60;;;28.20;20.60;;;;;;5082765;28;37511;-78
2021/04/20 07:48:39;;;;;;;20.10;14.63;;;27.30;21.30;;;;;;5060426;28;40665;-79
2021/04/20 07:51:11;;;;;;;16.40;14.70;;;26.60;21.90;;;;;;5059791;28;38994;-77
2021/04/20 07:53:50;;;;;;;16.27;14.57;;;25.90;22.40;;;;;;5065422;28;39041;-78
2021/04/20 07:56:24;;;;;;;17.20;14.40;;;25.20;23.00;;;;;;5038228;28;36139;-77
2021/04/20 07:58:55;;;;;;;17.50;14.50;;;25.20;23.50;;;;;;5076995;28;40255;-79
2021/04/20 08:01:36;;;;;;;18.53;13.73;;;25.50;23.20;;;;;;5086144;28;40285;-79
2021/04/20 08:04:12;;;;;;;15.40;13.77;;;25.70;22.70;;;;;;5040342;28;37195;-77
2021/04/20 08:06:44;;;;;;;16.23;13.20;;;25.80;22.80;;;;;;5057163;28;36339;-78
2021/04/20 08:09:23;;;;;;;13.77;11.83;;;25.80;22.70;;;;;;5074404;28;39613;-78
2021/04/20 08:11:56;;;;;;;15.80;12.50;;;26.60;22.80;;;;;;5056714;28;38791;-79
2021/04/20 08:14:31;;;;;;;14.50;13.10;;;28.40;21.30;;;;;;5064974;28;37309;-78
2021/04/20 08:17:07;;;;;;;14.97;13.57;;;30.70;19.80;;;;;;5055405;28;37366;-77
2021/04/20 08:19:38;;;;;;;14.47;13.10;;;32.70;18.10;;;;;;5054400;28;40539;-78
2021/04/20 08:22:07;;;;;;;15.57;14.00;;;34.20;17.00;;;;;;5072454;28;39710;-77
2021/04/20 08:24:42;;;;;;;21.97;14.67;;;34.90;16.70;;;;;;5068402;28;39526;-78
2021/04/20 08:27:15;;;;;;;15.27;13.87;;;35.30;16.20;;;;;;5058629;28;36110;-79
2021/04/20 08:29:49;;;;;;;16.80;14.73;;;35.20;15.30;;;;;;5058061;28;39403;-78
2021/04/20 08:32:21;;;;;;;14.70;13.40;;;34.70;15.90;;;;;;5084859;28;40024;-78
2021/04/20 08:34:55;;;;;;;15.17;13.67;;;35.10;15.90;;;;;;5057730;28;37144;-79
2021/04/20 08:37:32;;;;;;;15.27;13.97;;;35.50;15.60;;;;;;5046401;28;36912;-79
2021/04/20 08:40:12;;;;;;;14.43;12.93;;;36.00;15.40;;;;;;5054947;28;38342;-78
2021/04/20 08:42:47;;;;;;;16.40;14.90;;;36.70;15.00;;;;;;5058300;28;39176;-79
2021/04/20 08:45:21;;;;;;;16.27;14.73;;;36.80;13.80;;;;;;5053736;28;39614;-79
2021/04/20 08:48:02;;;;;;;16.13;14.90;;;37.00;14.30;;;;;;5067673;28;37315;-80
2021/04/20 08:50:33;;;;;;;16.77;15.20;;;37.50;14.20;;;;;;5071688;28;39891;-79
2021/04/20 08:53:19;;;;;;;18.30;14.70;;;38.00;13.90;;;;;;5058792;28;39998;-79
2021/04/20 08:55:52;;;;;;;14.50;13.33;;;38.30;13.60;;;;;;5075194;28;38432;-78
2021/04/20 08:58:54;;;;;;;18.43;14.50;;;38.50;12.90;;;;;;5089979;28;37845;-79
2021/04/20 09:01:33;;;;;;;14.57;13.23;;;38.50;12.80;;;;;;5079076;28;39785;-79
2021/04/20 09:04:19;;;;;;;14.83;13.40;;;38.60;13.00;;;;;;5072535;28;39872;-79
2021/04/20 09:06:49;;;;;;;14.30;13.10;;;38.50;12.60;;;;;;5078597;28;38431;-79
2021/04/20 09:09:19;;;;;;;14.93;13.47;;;38.20;13.20;;;;;;5084400;28;37486;-80
2021/04/20 09:11:49;;;;;;;15.50;14.10;;;38.10;12.60;;;;;;5074080;28;38598;-80
2021/04/20 09:14:25;;;;;;;15.43;14.03;;;37.80;12.40;;;;;;5080017;28;39125;-79
2021/04/20 09:16:57;;;;;;;14.93;13.63;;;37.60;12.70;;;;;;5048936;28;37951;-80
2021/04/20 09:19:34;;;;;;;14.87;13.63;;;37.60;12.80;;;;;;5056880;28;37183;-80
2021/04/20 09:22:11;;;;;;;14.33;13.10;;;37.10;12.30;;;;;;5058216;28;41086;-80
2021/04/20 09:24:45;;;;;;;13.90;12.40;;;37.50;12.70;;;;;;5069736;28;38745;-79
2021/04/20 09:27:18;;;;;;;22.63;13.27;;;38.20;12.20;;;;;;5052851;28;38472;-80
2021/04/20 09:29:54;;;;;;;14.40;12.00;;;38.40;12.00;;;;;;5072277;28;37885;-79
2021/04/20 09:32:23;;;;;;;12.53;11.17;;;38.60;11.80;;;;;;5052229;28;39932;-79
2021/04/20 09:34:54;;;;;;;11.93;10.97;;;38.90;11.50;;;;;;5074745;28;39152;-80
2021/04/20 09:37:23;;;;;;;11.43;10.33;;;39.20;10.80;;;;;;5061481;28;38361;-79
2021/04/20 09:39:53;;;;;;;11.07;10.07;;;39.10;10.90;;;;;;5063415;28;37385;-81
2021/04/20 09:42:21;;;;;;;11.83;10.80;;;39.40;10.80;;;;;;5072273;28;39561;-80
2021/04/20 09:45:09;;;;;;;12.53;11.40;;;39.60;11.00;;;;;;5060821;28;37882;-79
2021/04/20 09:48:08;;;;;;;11.20;9.90;;;39.50;10.70;;;;;;5076129;28;38731;-79
2021/04/20 09:50:53;;;;;;;15.23;10.40;;;39.10;10.80;;;;;;5055566;28;21105;-79
2021/04/20 09:53:29;;;;;;;10.77;9.77;;;38.90;10.90;;;;;;5047768;28;38521;-80
2021/04/20 09:56:07;;;;;;;10.60;9.70;;;38.10;10.70;;;;;;5079934;28;39116;-80
2021/04/20 09:58:37;;;;;;;10.87;9.87;;;38.30;11.20;;;;;;5069688;28;38341;-79
2021/04/20 10:01:13;;;;;;;10.77;9.70;;;38.00;10.80;;;;;;5060965;28;38316;-79
2021/04/20 10:03:52;;;;;;;11.63;10.63;;;36.60;10.70;;;;;;5080456;28;39842;-79
2021/04/20 10:06:38;;;;;;;11.23;10.27;;;34.00;11.90;;;;;;5065267;28;40253;-79
2021/04/20 10:09:21;;;;;;;12.20;9.47;;;31.20;14.00;;;;;;5058749;28;38716;-79
2021/04/20 10:12:02;;;;;;;11.13;9.57;;;29.60;15.00;;;;;;5072968;28;37364;-79
2021/04/20 10:14:39;;;;;;;9.40;8.60;;;28.50;16.70;;;;;;5078828;28;38596;-78
2021/04/20 10:17:15;;;;;;;10.17;8.87;;;27.90;16.60;;;;;;5093445;28;37689;-78
2021/04/20 10:19:50;;;;;;;9.37;8.50;;;27.90;16.60;;;;;;5069764;28;38342;-79
2021/04/20 10:22:29;;;;;;;8.33;7.53;;;28.80;16.40;;;;;;5071421;28;36949;-79
2021/04/20 10:25:05;;;;;;;8.87;7.97;;;30.50;15.20;;;;;;5064603;28;39382;-79
2021/04/20 10:27:35;;;;;;;10.00;9.00;;;32.00;14.80;;;;;;5065691;28;39812;-80
2021/04/20 10:30:08;;;;;;;14.60;8.73;;;32.90;13.90;;;;;;5052781;28;36817;-79
2021/04/20 10:32:38;;;;;;;10.33;9.27;;;33.60;13.50;;;;;;5060325;28;36975;-80
2021/04/20 10:35:11;;;;;;;10.53;9.53;;;33.10;13.00;;;;;;5063693;28;39625;-81
2021/04/20 10:37:43;;;;;;;9.37;8.47;;;31.70;13.50;;;;;;5070432;28;39330;-80
2021/04/20 10:40:13;;;;;;;9.77;8.73;;;31.30;14.50;;;;;;5079840;28;37283;-79
2021/04/20 10:42:44;;;;;;;9.27;8.37;;;31.70;14.10;;;;;;5090897;28;36000;-79
2021/04/20 10:45:14;;;;;;;9.07;8.07;;;32.40;14.10;;;;;;5072845;28;39732;-79
2021/04/20 10:47:43;;;;;;;8.83;8.03;;;33.40;13.10;;;;;;5084032;28;39306;-79
2021/04/20 10:50:20;;;;;;;9.30;8.50;;;33.70;12.90;;;;;;5057771;28;37742;-79
2021/04/20 10:52:54;;;;;;;10.50;9.50;;;34.20;12.30;;;;;;5081665;28;37199;-79
2021/04/20 10:55:25;;;;;;;9.83;9.00;;;34.20;11.90;;;;;;5077316;28;40038;-79
2021/04/20 10:57:56;;;;;;;9.33;8.43;;;33.20;12.60;;;;;;5064578;28;37755;-78
2021/04/20 11:00:27;;;;;;;13.67;8.80;;;32.10;13.30;;;;;;5085562;28;39381;-79
2021/04/20 11:02:57;;;;;;;9.73;8.83;;;32.40;13.60;;;;;;5083550;28;36959;-78
2021/04/20 11:05:29;;;;;;;8.77;7.87;;;32.10;13.60;;;;;;5087390;28;40350;-79
2021/04/20 11:07:58;;;;;;;9.17;8.30;;;30.60;13.40;;;;;;5092881;28;39096;-79
2021/04/20 11:10:34;;;;;;;9.90;8.90;;;28.50;15.10;;;;;;5066649;28;38558;-78
2021/04/20 11:13:01;;;;;;;10.60;9.50;;;26.80;16.40;;;;;;5088119;28;35519;-78
2021/04/20 11:15:31;;;;;;;8.80;7.97;;;25.70;18.30;;;;;;5085883;28;40084;-78
2021/04/20 11:18:04;;;;;;;11.47;9.73;;;25.20;17.80;;;;;;5071762;28;39592;-78
2021/04/20 11:20:35;;;;;;;11.53;10.30;;;24.50;19.00;;;;;;5068209;28;39169;-79
2021/04/20 11:23:17;;;;;;;9.23;8.33;;;24.30;19.00;;;;;;5052502;28;36672;-78
2021/04/20 11:25:57;;;;;;;7.47;6.77;;;24.50;18.60;;;;;;5076295;28;40301;-78
2021/04/20 11:28:32;;;;;;;14.43;8.30;;;24.90;18.80;;;;;;5065507;28;37677;-78
2021/04/20 11:31:02;;;;;;;8.20;7.43;;;24.70;18.20;;;;;;5079235;28;38322;-78
2021/04/20 11:33:35;;;;;;;8.27;7.47;;;24.70;18.00;;;;;;5065039;28;36996;-78
2021/04/20 11:36:05;;;;;;;9.00;7.47;;;24.50;18.50;;;;;;5058013;28;40778;-78
2021/04/20 11:38:43;;;;;;;9.10;8.03;;;24.30;19.40;;;;;;5050883;28;37795;-78
2021/04/20 11:41:15;;;;;;;9.50;8.50;;;23.50;19.00;;;;;;5060841;28;37432;-78
2021/04/20 11:43:55;;;;;;;8.17;7.33;;;22.80;19.80;;;;;;5078953;28;36800;-78
2021/04/20 11:46:26;;;;;;;11.53;7.80;;;22.70;20.80;;;;;;5083722;28;40864;-78
2021/04/20 11:48:56;;;;;;;9.17;7.83;;;22.40;20.40;;;;;;5089899;28;39845;-79
2021/04/20 11:51:32;;;;;;;9.67;8.47;;;22.00;20.90;;;;;;5058223;28;37746;-77
2021/04/20 11:54:01;;;;;;;9.30;7.87;;;21.90;21.10;;;;;;5051616;28;36142;-78
2021/04/20 11:56:35;;;;;;;9.27;7.70;;;21.60;20.80;;;;;;5073346;28;39475;-78
2021/04/20 11:59:03;;;;;;;8.67;7.77;;;21.10;21.70;;;;;;5074642;28;39058;-78
2021/04/20 12:01:31;;;;;;;8.37;7.50;;;20.70;21.70;;;;;;5069403;28;37416;-78
2021/04/20 12:04:02;;;;;;;10.10;8.00;;;20.10;22.50;;;;;;5057054;28;37964;-78
2021/04/20 12:06:40;;;;;;;9.03;8.07;;;19.30;22.90;;;;;;5047652;28;39306;-79
2021/04/20 12:09:09;;;;;;;8.60;7.00;;;19.10;23.10;;;;;;5076420;28;38757;-79
2021/04/20 12:11:39;;;;;;;8.60;7.60;;;19.40;22.80;;;;;;5073263;28;38222;-78
2021/04/20 12:14:07;;;;;;;10.23;6.90;;;19.40;22.80;;;;;;5063433;28;37837;-79
2021/04/20 12:16:37;;;;;;;9.23;7.97;;;19.60;22.40;;;;;;5069884;28;39580;-79
2021/04/20 12:19:07;;;;;;;9.53;7.73;;;19.80;22.30;;;;;;5073663;28;39367;-79
2021/04/20 12:21:38;;;;;;;10.90;8.23;;;20.00;22.00;;;;;;5056641;28;37479;-79
2021/04/20 12:24:10;;;;;;;10.17;8.17;;;20.20;21.90;;;;;;5043679;28;35499;-80
2021/04/20 12:26:40;;;;;;;8.07;7.27;;;20.60;21.70;;;;;;5056841;28;38558;-80
2021/04/20 12:29:12;;;;;;;11.43;7.80;;;20.90;22.50;;;;;;5059932;28;39458;-79
2021/04/20 12:31:41;;;;;;;7.70;6.90;;;21.20;22.10;;;;;;5071081;28;38119;-78
2021/04/20 12:34:08;;;;;;;9.37;7.17;;;21.40;20.90;;;;;;5045799;28;36129;-79
2021/04/20 12:36:44;;;;;;;9.40;6.50;;;21.60;20.60;;;;;;5046925;28;38515;-79
2021/04/20 12:39:14;;;;;;;6.80;6.20;;;21.80;20.40;;;;;;5061792;28;40801;-79
2021/04/20 12:41:49;;;;;;;9.80;6.83;;;22.00;19.70;;;;;;5071530;28;38816;-79
2021/04/20 12:44:22;;;;;;;8.97;6.37;;;21.90;20.10;;;;;;5061232;28;37667;-79
2021/04/20 12:46:53;;;;;;;6.57;5.43;;;21.70;20.30;;;;;;5069868;28;38876;-79
2021/04/20 12:49:24;;;;;;;7.00;6.30;;;21.40;20.20;;;;;;5077148;28;39109;-79
2021/04/20 12:51:53;;;;;;;6.83;6.13;;;21.40;20.00;;;;;;5071367;28;38296;-80
2021/04/20 12:54:22;;;;;;;10.50;7.73;;;21.30;20.40;;;;;;5077428;28;37761;-79
2021/04/20 12:56:58;;;;;;;10.10;7.17;;;20.90;20.10;;;;;;5052271;28;38566;-80
2021/04/20 12:59:27;;;;;;;7.00;6.30;;;20.70;21.00;;;;;;5076881;28;40083;-80